Dorsey, Mississippi
Current Conditions -  °F | °C
As of 1:53 PM on Monday 22 Dec 2014 (Local Time) from KTUP Reporting Station
Haze Haze  
Wind Chill: 53°   Ceiling: 300
Heat Index: 53°   Visibility: 2mi
Dew Point: 51°   Wind: 8mph
Humidity: 93%   Direction: 190°S
Pressure: 29.73"   Gusts: NA
Location:  34.2927°N, 88.299°W
Report Text: KTUP 221953Z 19007KT 2SM BR OVC003 12/11 A2973 RMK AO2 SLP066 T01170106
Loading
Personal Weather Stations






























Interactive Weather Map New forecast layout! Learn more

10-Day Weather Forecast

Advertisements
Track Severe Weather on mobile